sensor_id;sensor_type;location;lat;lon;timestamp;pressure;altitude;pressure_sealevel;temperature;humidity
49065;BME280;34877;27.062;-82.386;2022-10-26T00:04:57;101440.18;;;16.31;100.00
49065;BME280;34877;27.062;-82.386;2022-10-26T00:15:01;101448.19;;;16.89;100.00
49065;BME280;34877;27.062;-82.386;2022-10-26T00:25:08;101454.00;;;16.51;100.00
49065;BME280;34877;27.062;-82.386;2022-10-26T00:35:12;101468.06;;;16.58;100.00
49065;BME280;34877;27.062;-82.386;2022-10-26T00:45:20;101479.41;;;16.50;100.00
49065;BME280;34877;27.062;-82.386;2022-10-26T00:55:31;101473.87;;;16.93;100.00
49065;BME280;34877;27.062;-82.386;2022-10-26T01:05:40;101468.12;;;16.02;100.00
49065;BME280;34877;27.062;-82.386;2022-10-26T01:15:54;101466.84;;;16.70;100.00
49065;BME280;34877;27.062;-82.386;2022-10-26T01:26:23;101465.15;;;16.42;100.00
49065;BME280;34877;27.062;-82.386;2022-10-26T01:36:36;101477.60;;;17.01;100.00
49065;BME280;34877;27.062;-82.386;2022-10-26T01:46:49;101487.58;;;16.88;100.00
49065;BME280;34877;27.062;-82.386;2022-10-26T01:57:02;101493.95;;;16.68;100.00
49065;BME280;34877;27.062;-82.386;2022-10-26T02:07:12;101491.89;;;16.53;100.00
49065;BME280;34877;27.062;-82.386;2022-10-26T02:17:27;101480.16;;;16.24;100.00
49065;BME280;34877;27.062;-82.386;2022-10-26T02:27:35;101490.12;;;16.19;100.00
49065;BME280;34877;27.062;-82.386;2022-10-26T02:37:43;101486.67;;;16.69;100.00
49065;BME280;34877;27.062;-82.386;2022-10-26T02:47:47;101482.25;;;16.34;100.00
49065;BME280;34877;27.062;-82.386;2022-10-26T02:57:54;101485.37;;;16.57;100.00
49065;BME280;34877;27.062;-82.386;2022-10-26T03:08:03;101496.50;;;16.44;100.00
49065;BME280;34877;27.062;-82.386;2022-10-26T03:18:07;101522.35;;;16.94;100.00
49065;BME280;34877;27.062;-82.386;2022-10-26T03:28:11;101514.30;;;16.26;100.00
49065;BME280;34877;27.062;-82.386;2022-10-26T03:38:17;101507.13;;;16.64;100.00
49065;BME280;34877;27.062;-82.386;2022-10-26T03:48:21;101495.24;;;16.27;100.00
49065;BME280;34877;27.062;-82.386;2022-10-26T03:58:27;101491.22;;;16.77;100.00
49065;BME280;34877;27.062;-82.386;2022-10-26T04:08:32;101511.72;;;16.74;100.00
49065;BME280;34877;27.062;-82.386;2022-10-26T04:18:37;101513.99;;;16.30;100.00
49065;BME280;34877;27.062;-82.386;2022-10-26T04:28:42;101513.33;;;15.71;100.00
49065;BME280;34877;27.062;-82.386;2022-10-26T04:38:47;101499.27;;;16.36;100.00
49065;BME280;34877;27.062;-82.386;2022-10-26T04:48:51;101475.72;;;16.31;100.00
49065;BME280;34877;27.062;-82.386;2022-10-26T04:58:56;101468.79;;;16.45;100.00
49065;BME280;34877;27.062;-82.386;2022-10-26T05:09:02;101469.12;;;16.18;100.00
49065;BME280;34877;27.062;-82.386;2022-10-26T05:19:07;101458.41;;;16.22;100.00
49065;BME280;34877;27.062;-82.386;2022-10-26T05:29:13;101451.18;;;15.88;100.00
49065;BME280;34877;27.062;-82.386;2022-10-26T05:39:17;101458.30;;;16.46;100.00
49065;BME280;34877;27.062;-82.386;2022-10-26T05:49:22;101452.59;;;16.10;100.00
49065;BME280;34877;27.062;-82.386;2022-10-26T05:59:27;101448.48;;;16.23;100.00
49065;BME280;34877;27.062;-82.386;2022-10-26T06:09:32;101441.90;;;15.56;100.00
49065;BME280;34877;27.062;-82.386;2022-10-26T06:19:49;101451.48;;;15.69;100.00
49065;BME280;34877;27.062;-82.386;2022-10-26T06:30:00;101439.92;;;15.56;100.00
49065;BME280;34877;27.062;-82.386;2022-10-26T06:40:09;101436.03;;;15.41;100.00
49065;BME280;34877;27.062;-82.386;2022-10-26T06:50:24;101422.14;;;15.44;100.00
49065;BME280;34877;27.062;-82.386;2022-10-26T07:00:34;101413.89;;;15.27;100.00
49065;BME280;34877;27.062;-82.386;2022-10-26T07:10:36;101401.69;;;15.07;100.00
49065;BME280;34877;27.062;-82.386;2022-10-26T07:20:42;101391.95;;;15.53;100.00
49065;BME280;34877;27.062;-82.386;2022-10-26T07:30:47;101380.57;;;15.52;100.00
49065;BME280;34877;27.062;-82.386;2022-10-26T07:40:52;101367.83;;;15.62;100.00
49065;BME280;34877;27.062;-82.386;2022-10-26T07:51:00;101357.16;;;15.52;100.00
49065;BME280;34877;27.062;-82.386;2022-10-26T08:01:08;101359.85;;;15.36;100.00
49065;BME280;34877;27.062;-82.386;2022-10-26T08:11:11;101358.85;;;15.60;100.00
49065;BME280;34877;27.062;-82.386;2022-10-26T08:21:16;101356.36;;;15.72;100.00
49065;BME280;34877;27.062;-82.386;2022-10-26T08:31:22;101355.75;;;15.01;100.00
49065;BME280;34877;27.062;-82.386;2022-10-26T08:41:34;101356.95;;;15.62;100.00
49065;BME280;34877;27.062;-82.386;2022-10-26T08:51:38;101350.90;;;15.42;100.00
49065;BME280;34877;27.062;-82.386;2022-10-26T09:01:42;101345.58;;;14.92;100.00
49065;BME280;34877;27.062;-82.386;2022-10-26T09:11:54;101348.83;;;15.51;100.00
49065;BME280;34877;27.062;-82.386;2022-10-26T09:22:06;101338.81;;;15.07;100.00
49065;BME280;34877;27.062;-82.386;2022-10-26T09:32:16;101337.60;;;15.75;100.00
49065;BME280;34877;27.062;-82.386;2022-10-26T09:42:24;101335.36;;;15.18;100.00
49065;BME280;34877;27.062;-82.386;2022-10-26T09:52:32;101331.15;;;15.99;100.00
49065;BME280;34877;27.062;-82.386;2022-10-26T10:02:39;101325.67;;;15.33;100.00
49065;BME280;34877;27.062;-82.386;2022-10-26T10:12:42;101323.65;;;15.47;100.00
49065;BME280;34877;27.062;-82.386;2022-10-26T10:22:55;101321.52;;;15.26;100.00
49065;BME280;34877;27.062;-82.386;2022-10-26T10:33:06;101330.66;;;15.01;100.00
49065;BME280;34877;27.062;-82.386;2022-10-26T10:43:13;101332.87;;;15.39;100.00
49065;BME280;34877;27.062;-82.386;2022-10-26T10:53:21;101332.71;;;15.27;100.00
49065;BME280;34877;27.062;-82.386;2022-10-26T11:03:35;101330.63;;;15.52;100.00
49065;BME280;34877;27.062;-82.386;2022-10-26T11:13:47;101338.92;;;15.11;100.00
49065;BME280;34877;27.062;-82.386;2022-10-26T11:24:00;101341.08;;;14.77;100.00
49065;BME280;34877;27.062;-82.386;2022-10-26T11:34:23;101352.24;;;15.33;100.00
49065;BME280;34877;27.062;-82.386;2022-10-26T11:44:30;101352.97;;;15.26;100.00
49065;BME280;34877;27.062;-82.386;2022-10-26T11:54:41;101344.06;;;15.52;100.00
49065;BME280;34877;27.062;-82.386;2022-10-26T12:04:52;101346.30;;;14.59;100.00
49065;BME280;34877;27.062;-82.386;2022-10-26T12:15:02;101359.98;;;15.01;100.00
49065;BME280;34877;27.062;-82.386;2022-10-26T12:25:19;101374.35;;;15.10;100.00
49065;BME280;34877;27.062;-82.386;2022-10-26T12:35:32;101383.72;;;15.52;100.00
49065;BME280;34877;27.062;-82.386;2022-10-26T12:45:36;101402.12;;;14.95;100.00
49065;BME280;34877;27.062;-82.386;2022-10-26T12:55:58;101412.05;;;14.91;100.00
49065;BME280;34877;27.062;-82.386;2022-10-26T13:06:16;101412.73;;;15.37;100.00
49065;BME280;34877;27.062;-82.386;2022-10-26T13:16:28;101421.77;;;14.96;100.00
49065;BME280;34877;27.062;-82.386;2022-10-26T13:26:32;101433.72;;;15.02;100.00
49065;BME280;34877;27.062;-82.386;2022-10-26T13:37:29;101442.32;;;15.45;100.00
49065;BME280;34877;27.062;-82.386;2022-10-26T13:47:42;101464.84;;;15.44;100.00
49065;BME280;34877;27.062;-82.386;2022-10-26T13:58:00;101464.22;;;14.50;100.00
49065;BME280;34877;27.062;-82.386;2022-10-26T14:08:15;101473.18;;;15.26;100.00
49065;BME280;34877;27.062;-82.386;2022-10-26T14:18:24;101467.23;;;15.18;100.00
49065;BME280;34877;27.062;-82.386;2022-10-26T14:28:29;101469.74;;;15.40;100.00
49065;BME280;34877;27.062;-82.386;2022-10-26T14:38:37;101484.56;;;15.65;100.00
49065;BME280;34877;27.062;-82.386;2022-10-26T14:48:53;101487.74;;;15.75;100.00
49065;BME280;34877;27.062;-82.386;2022-10-26T14:58:57;101484.22;;;15.83;100.00
49065;BME280;34877;27.062;-82.386;2022-10-26T15:09:02;101478.41;;;15.96;100.00
49065;BME280;34877;27.062;-82.386;2022-10-26T15:19:09;101478.00;;;16.17;100.00
49065;BME280;34877;27.062;-82.386;2022-10-26T15:29:34;101471.35;;;16.04;100.00
49065;BME280;34877;27.062;-82.386;2022-10-26T15:39:37;101482.91;;;16.29;100.00
49065;BME280;34877;27.062;-82.386;2022-10-26T15:49:42;101500.58;;;16.63;100.00
49065;BME280;34877;27.062;-82.386;2022-10-26T15:59:46;101498.98;;;16.40;100.00
49065;BME280;34877;27.062;-82.386;2022-10-26T16:09:51;101491.57;;;16.79;100.00
49065;BME280;34877;27.062;-82.386;2022-10-26T16:19:56;101482.67;;;17.05;100.00
49065;BME280;34877;27.062;-82.386;2022-10-26T16:30:03;101488.23;;;16.62;100.00
49065;BME280;34877;27.062;-82.386;2022-10-26T16:40:08;101475.24;;;17.23;100.00
49065;BME280;34877;27.062;-82.386;2022-10-26T16:50:12;101463.10;;;17.43;100.00
49065;BME280;34877;27.062;-82.386;2022-10-26T17:00:18;101457.77;;;17.23;100.00
49065;BME280;34877;27.062;-82.386;2022-10-26T17:10:22;101460.27;;;17.62;100.00
49065;BME280;34877;27.062;-82.386;2022-10-26T17:20:26;101449.87;;;18.05;100.00
49065;BME280;34877;27.062;-82.386;2022-10-26T17:30:32;101416.00;;;18.53;100.00
49065;BME280;34877;27.062;-82.386;2022-10-26T17:40:37;101386.42;;;18.20;100.00
49065;BME280;34877;27.062;-82.386;2022-10-26T17:50:42;101370.90;;;18.49;100.00
49065;BME280;34877;27.062;-82.386;2022-10-26T18:00:48;101366.03;;;18.30;100.00
49065;BME280;34877;27.062;-82.386;2022-10-26T18:10:52;101360.51;;;18.15;94.75
49065;BME280;34877;27.062;-82.386;2022-10-26T18:21:00;101337.32;;;17.38;83.02
49065;BME280;34877;27.062;-82.386;2022-10-26T18:31:09;101316.55;;;17.60;87.16
49065;BME280;34877;27.062;-82.386;2022-10-26T18:41:13;101300.38;;;17.84;81.41
49065;BME280;34877;27.062;-82.386;2022-10-26T18:51:19;101280.30;;;17.78;85.00
49065;BME280;34877;27.062;-82.386;2022-10-26T19:01:24;101278.52;;;17.68;82.65
49065;BME280;34877;27.062;-82.386;2022-10-26T19:11:29;101261.07;;;17.01;84.13
49065;BME280;34877;27.062;-82.386;2022-10-26T19:21:32;101248.95;;;17.71;83.47
49065;BME280;34877;27.062;-82.386;2022-10-26T19:31:37;101241.34;;;17.60;85.62
49065;BME280;34877;27.062;-82.386;2022-10-26T19:41:42;101238.62;;;17.58;83.14
49065;BME280;34877;27.062;-82.386;2022-10-26T19:51:47;101237.92;;;17.76;84.30
49065;BME280;34877;27.062;-82.386;2022-10-26T20:01:51;101235.33;;;17.68;81.28
49065;BME280;34877;27.062;-82.386;2022-10-26T20:11:57;101230.84;;;17.24;83.80
49065;BME280;34877;27.062;-82.386;2022-10-26T20:22:02;101227.35;;;17.69;85.19
49065;BME280;34877;27.062;-82.386;2022-10-26T20:32:07;101237.32;;;17.62;82.38
49065;BME280;34877;27.062;-82.386;2022-10-26T20:42:20;101236.54;;;17.55;83.42
49065;BME280;34877;27.062;-82.386;2022-10-26T20:52:34;101230.25;;;17.56;78.75
49065;BME280;34877;27.062;-82.386;2022-10-26T21:02:41;101228.42;;;17.85;83.41
49065;BME280;34877;27.062;-82.386;2022-10-26T21:12:47;101231.57;;;17.34;83.16
49065;BME280;34877;27.062;-82.386;2022-10-26T21:22:52;101222.99;;;17.08;83.40
49065;BME280;34877;27.062;-82.386;2022-10-26T21:32:56;101216.18;;;17.77;83.21
49065;BME280;34877;27.062;-82.386;2022-10-26T21:43:01;101222.14;;;17.30;78.81
49065;BME280;34877;27.062;-82.386;2022-10-26T21:53:12;101225.03;;;17.18;83.19
49065;BME280;34877;27.062;-82.386;2022-10-26T22:03:16;101238.00;;;17.44;84.73
49065;BME280;34877;27.062;-82.386;2022-10-26T22:13:22;101247.78;;;17.51;84.70
49065;BME280;34877;27.062;-82.386;2022-10-26T22:23:27;101246.06;;;17.50;85.25
49065;BME280;34877;27.062;-82.386;2022-10-26T22:33:32;101251.01;;;17.43;87.45
49065;BME280;34877;27.062;-82.386;2022-10-26T22:43:37;101245.02;;;18.12;100.00
49065;BME280;34877;27.062;-82.386;2022-10-26T22:53:42;101256.09;;;17.81;100.00
49065;BME280;34877;27.062;-82.386;2022-10-26T23:03:46;101252.24;;;17.70;100.00
49065;BME280;34877;27.062;-82.386;2022-10-26T23:13:53;101255.95;;;17.95;100.00
49065;BME280;34877;27.062;-82.386;2022-10-26T23:23:57;101269.44;;;18.24;100.00
49065;BME280;34877;27.062;-82.386;2022-10-26T23:34:02;101280.72;;;17.58;100.00
49065;BME280;34877;27.062;-82.386;2022-10-26T23:44:07;101288.60;;;17.64;100.00
49065;BME280;34877;27.062;-82.386;2022-10-26T23:54:12;101294.95;;;17.62;100.00
